sensor_id;sensor_type;location;lat;lon;timestamp;P1;durP1;ratioP1;P2;durP2;ratioP2
48751;SDS011;34544;48.836;9.174;2023-12-07T00:00:49;9.88;;;6.13;;
48751;SDS011;34544;48.836;9.174;2023-12-07T00:03:15;9.00;;;7.05;;
48751;SDS011;34544;48.836;9.174;2023-12-07T00:05:41;10.15;;;6.68;;
48751;SDS011;34544;48.836;9.174;2023-12-07T00:08:09;12.43;;;7.47;;
48751;SDS011;34544;48.836;9.174;2023-12-07T00:10:36;8.55;;;6.28;;
48751;SDS011;34544;48.836;9.174;2023-12-07T00:13:01;10.32;;;6.78;;
48751;SDS011;34544;48.836;9.174;2023-12-07T00:15:27;11.50;;;6.45;;
48751;SDS011;34544;48.836;9.174;2023-12-07T00:17:53;10.70;;;6.93;;
48751;SDS011;34544;48.836;9.174;2023-12-07T00:20:19;11.60;;;7.63;;
48751;SDS011;34544;48.836;9.174;2023-12-07T00:22:44;9.27;;;6.85;;
48751;SDS011;34544;48.836;9.174;2023-12-07T00:25:11;9.00;;;6.32;;
48751;SDS011;34544;48.836;9.174;2023-12-07T00:27:36;8.82;;;6.22;;
48751;SDS011;34544;48.836;9.174;2023-12-07T00:30:02;9.05;;;6.65;;
48751;SDS011;34544;48.836;9.174;2023-12-07T00:32:28;9.73;;;5.95;;
48751;SDS011;34544;48.836;9.174;2023-12-07T00:34:54;10.55;;;7.30;;
48751;SDS011;34544;48.836;9.174;2023-12-07T00:37:21;11.15;;;6.55;;
48751;SDS011;34544;48.836;9.174;2023-12-07T00:39:46;8.50;;;6.70;;
48751;SDS011;34544;48.836;9.174;2023-12-07T00:42:12;12.18;;;6.70;;
48751;SDS011;34544;48.836;9.174;2023-12-07T00:44:41;9.68;;;6.45;;
48751;SDS011;34544;48.836;9.174;2023-12-07T00:47:07;11.93;;;6.68;;
48751;SDS011;34544;48.836;9.174;2023-12-07T00:49:33;9.75;;;6.47;;
48751;SDS011;34544;48.836;9.174;2023-12-07T00:51:58;10.73;;;6.60;;
48751;SDS011;34544;48.836;9.174;2023-12-07T00:54:24;10.40;;;6.57;;
48751;SDS011;34544;48.836;9.174;2023-12-07T00:56:50;12.75;;;6.82;;
48751;SDS011;34544;48.836;9.174;2023-12-07T00:59:16;10.73;;;6.43;;
48751;SDS011;34544;48.836;9.174;2023-12-07T01:01:42;10.13;;;6.95;;
48751;SDS011;34544;48.836;9.174;2023-12-07T01:04:08;8.70;;;6.55;;
48751;SDS011;34544;48.836;9.174;2023-12-07T01:06:33;8.90;;;6.70;;
48751;SDS011;34544;48.836;9.174;2023-12-07T01:08:59;11.38;;;6.60;;
48751;SDS011;34544;48.836;9.174;2023-12-07T01:11:25;7.45;;;5.75;;
48751;SDS011;34544;48.836;9.174;2023-12-07T01:13:50;10.30;;;5.85;;
48751;SDS011;34544;48.836;9.174;2023-12-07T01:16:16;8.68;;;6.40;;
48751;SDS011;34544;48.836;9.174;2023-12-07T01:18:41;9.00;;;6.78;;
48751;SDS011;34544;48.836;9.174;2023-12-07T01:21:07;10.23;;;6.85;;
48751;SDS011;34544;48.836;9.174;2023-12-07T01:23:33;11.02;;;6.72;;
48751;SDS011;34544;48.836;9.174;2023-12-07T01:25:58;13.30;;;6.90;;
48751;SDS011;34544;48.836;9.174;2023-12-07T01:28:27;11.93;;;6.90;;
48751;SDS011;34544;48.836;9.174;2023-12-07T01:30:53;9.60;;;6.85;;
48751;SDS011;34544;48.836;9.174;2023-12-07T01:33:18;8.38;;;6.32;;
48751;SDS011;34544;48.836;9.174;2023-12-07T01:35:44;9.27;;;6.38;;
48751;SDS011;34544;48.836;9.174;2023-12-07T01:38:09;13.35;;;6.65;;
48751;SDS011;34544;48.836;9.174;2023-12-07T01:40:35;8.88;;;6.25;;
48751;SDS011;34544;48.836;9.174;2023-12-07T01:43:01;8.23;;;5.47;;
48751;SDS011;34544;48.836;9.174;2023-12-07T01:45:26;11.50;;;7.22;;
48751;SDS011;34544;48.836;9.174;2023-12-07T01:47:52;9.02;;;6.65;;
48751;SDS011;34544;48.836;9.174;2023-12-07T01:50:21;13.20;;;7.43;;
48751;SDS011;34544;48.836;9.174;2023-12-07T01:52:49;9.45;;;6.18;;
48751;SDS011;34544;48.836;9.174;2023-12-07T01:55:20;7.75;;;5.80;;
48751;SDS011;34544;48.836;9.174;2023-12-07T01:57:47;10.70;;;6.30;;
48751;SDS011;34544;48.836;9.174;2023-12-07T02:00:14;6.90;;;5.70;;
48751;SDS011;34544;48.836;9.174;2023-12-07T02:02:41;12.05;;;6.68;;
48751;SDS011;34544;48.836;9.174;2023-12-07T02:05:08;8.88;;;6.63;;
48751;SDS011;34544;48.836;9.174;2023-12-07T02:07:34;10.30;;;5.72;;
48751;SDS011;34544;48.836;9.174;2023-12-07T02:10:00;10.85;;;6.72;;
48751;SDS011;34544;48.836;9.174;2023-12-07T02:12:26;9.60;;;6.38;;
48751;SDS011;34544;48.836;9.174;2023-12-07T02:14:54;9.02;;;5.88;;
48751;SDS011;34544;48.836;9.174;2023-12-07T02:17:27;11.25;;;6.60;;
48751;SDS011;34544;48.836;9.174;2023-12-07T02:22:45;11.48;;;7.15;;
48751;SDS011;34544;48.836;9.174;2023-12-07T02:25:16;9.90;;;6.55;;
48751;SDS011;34544;48.836;9.174;2023-12-07T02:27:44;11.48;;;5.68;;
48751;SDS011;34544;48.836;9.174;2023-12-07T02:30:11;11.52;;;6.03;;
48751;SDS011;34544;48.836;9.174;2023-12-07T02:32:38;10.50;;;6.20;;
48751;SDS011;34544;48.836;9.174;2023-12-07T02:35:06;10.48;;;6.57;;
48751;SDS011;34544;48.836;9.174;2023-12-07T02:37:37;11.00;;;6.57;;
48751;SDS011;34544;48.836;9.174;2023-12-07T02:40:17;12.07;;;7.25;;
48751;SDS011;34544;48.836;9.174;2023-12-07T02:42:45;9.82;;;6.43;;
48751;SDS011;34544;48.836;9.174;2023-12-07T02:45:12;9.43;;;6.80;;
48751;SDS011;34544;48.836;9.174;2023-12-07T02:47:38;11.95;;;7.45;;
48751;SDS011;34544;48.836;9.174;2023-12-07T02:50:04;9.95;;;6.60;;
48751;SDS011;34544;48.836;9.174;2023-12-07T02:52:32;9.75;;;7.03;;
48751;SDS011;34544;48.836;9.174;2023-12-07T02:54:58;9.60;;;7.03;;
48751;SDS011;34544;48.836;9.174;2023-12-07T02:57:24;10.25;;;7.03;;
48751;SDS011;34544;48.836;9.174;2023-12-07T02:59:50;11.65;;;7.68;;
48751;SDS011;34544;48.836;9.174;2023-12-07T03:02:16;14.70;;;7.22;;
48751;SDS011;34544;48.836;9.174;2023-12-07T03:04:42;10.98;;;6.55;;
48751;SDS011;34544;48.836;9.174;2023-12-07T03:07:07;10.55;;;6.70;;
48751;SDS011;34544;48.836;9.174;2023-12-07T03:09:33;9.48;;;6.57;;
48751;SDS011;34544;48.836;9.174;2023-12-07T03:11:59;10.98;;;6.68;;
48751;SDS011;34544;48.836;9.174;2023-12-07T03:14:24;8.18;;;6.07;;
48751;SDS011;34544;48.836;9.174;2023-12-07T03:16:50;9.32;;;6.28;;
48751;SDS011;34544;48.836;9.174;2023-12-07T03:19:16;16.05;;;7.45;;
48751;SDS011;34544;48.836;9.174;2023-12-07T03:21:42;9.88;;;6.45;;
48751;SDS011;34544;48.836;9.174;2023-12-07T03:24:10;10.13;;;7.03;;
48751;SDS011;34544;48.836;9.174;2023-12-07T03:26:36;10.95;;;7.55;;
48751;SDS011;34544;48.836;9.174;2023-12-07T03:29:03;9.82;;;7.00;;
48751;SDS011;34544;48.836;9.174;2023-12-07T03:31:29;14.18;;;7.40;;
48751;SDS011;34544;48.836;9.174;2023-12-07T03:33:55;11.32;;;6.80;;
48751;SDS011;34544;48.836;9.174;2023-12-07T03:36:21;9.40;;;7.45;;
48751;SDS011;34544;48.836;9.174;2023-12-07T03:38:48;10.05;;;6.85;;
48751;SDS011;34544;48.836;9.174;2023-12-07T03:41:14;10.13;;;7.88;;
48751;SDS011;34544;48.836;9.174;2023-12-07T03:43:40;10.25;;;7.50;;
48751;SDS011;34544;48.836;9.174;2023-12-07T03:46:06;10.68;;;8.00;;
48751;SDS011;34544;48.836;9.174;2023-12-07T03:48:33;12.55;;;8.13;;
48751;SDS011;34544;48.836;9.174;2023-12-07T03:50:58;13.95;;;8.32;;
48751;SDS011;34544;48.836;9.174;2023-12-07T03:53:24;15.57;;;8.07;;
48751;SDS011;34544;48.836;9.174;2023-12-07T03:55:50;15.80;;;8.27;;
48751;SDS011;34544;48.836;9.174;2023-12-07T03:58:16;11.00;;;7.45;;
48751;SDS011;34544;48.836;9.174;2023-12-07T04:00:42;13.07;;;6.68;;
48751;SDS011;34544;48.836;9.174;2023-12-07T04:03:07;14.65;;;8.05;;
48751;SDS011;34544;48.836;9.174;2023-12-07T04:05:33;13.45;;;8.98;;
48751;SDS011;34544;48.836;9.174;2023-12-07T04:07:59;11.10;;;7.05;;
48751;SDS011;34544;48.836;9.174;2023-12-07T04:10:25;12.57;;;7.65;;
48751;SDS011;34544;48.836;9.174;2023-12-07T04:12:50;11.38;;;7.60;;
48751;SDS011;34544;48.836;9.174;2023-12-07T04:15:18;12.40;;;8.18;;
48751;SDS011;34544;48.836;9.174;2023-12-07T04:17:46;12.90;;;6.95;;
48751;SDS011;34544;48.836;9.174;2023-12-07T04:20:12;12.63;;;8.95;;
48751;SDS011;34544;48.836;9.174;2023-12-07T04:22:38;13.43;;;8.93;;
48751;SDS011;34544;48.836;9.174;2023-12-07T04:25:04;13.40;;;7.60;;
48751;SDS011;34544;48.836;9.174;2023-12-07T04:27:31;17.65;;;8.57;;
48751;SDS011;34544;48.836;9.174;2023-12-07T04:29:57;16.17;;;8.63;;
48751;SDS011;34544;48.836;9.174;2023-12-07T04:32:23;13.30;;;8.25;;
48751;SDS011;34544;48.836;9.174;2023-12-07T04:34:49;14.13;;;9.52;;
48751;SDS011;34544;48.836;9.174;2023-12-07T04:37:14;12.07;;;9.05;;
48751;SDS011;34544;48.836;9.174;2023-12-07T04:39:40;15.43;;;8.77;;
48751;SDS011;34544;48.836;9.174;2023-12-07T04:42:06;15.10;;;8.80;;
48751;SDS011;34544;48.836;9.174;2023-12-07T04:44:31;19.75;;;10.05;;
48751;SDS011;34544;48.836;9.174;2023-12-07T04:46:57;17.35;;;10.30;;
48751;SDS011;34544;48.836;9.174;2023-12-07T04:49:23;14.63;;;8.95;;
48751;SDS011;34544;48.836;9.174;2023-12-07T04:51:48;16.75;;;10.00;;
48751;SDS011;34544;48.836;9.174;2023-12-07T04:54:14;18.48;;;9.73;;
48751;SDS011;34544;48.836;9.174;2023-12-07T04:56:40;16.98;;;8.90;;
48751;SDS011;34544;48.836;9.174;2023-12-07T04:59:07;19.08;;;11.68;;
48751;SDS011;34544;48.836;9.174;2023-12-07T05:01:35;16.60;;;10.15;;
48751;SDS011;34544;48.836;9.174;2023-12-07T05:04:03;18.40;;;9.93;;
48751;SDS011;34544;48.836;9.174;2023-12-07T05:06:34;19.27;;;9.88;;
48751;SDS011;34544;48.836;9.174;2023-12-07T05:09:00;19.75;;;11.35;;
48751;SDS011;34544;48.836;9.174;2023-12-07T05:11:26;19.90;;;10.70;;
48751;SDS011;34544;48.836;9.174;2023-12-07T05:13:52;15.27;;;10.25;;
48751;SDS011;34544;48.836;9.174;2023-12-07T05:16:17;17.58;;;11.07;;
48751;SDS011;34544;48.836;9.174;2023-12-07T05:18:43;19.38;;;13.20;;
48751;SDS011;34544;48.836;9.174;2023-12-07T05:21:09;18.10;;;11.35;;
48751;SDS011;34544;48.836;9.174;2023-12-07T05:23:34;17.58;;;10.48;;
48751;SDS011;34544;48.836;9.174;2023-12-07T05:26:00;23.23;;;13.07;;
48751;SDS011;34544;48.836;9.174;2023-12-07T05:28:26;17.05;;;12.13;;
48751;SDS011;34544;48.836;9.174;2023-12-07T05:30:52;20.55;;;11.52;;
48751;SDS011;34544;48.836;9.174;2023-12-07T05:33:18;20.65;;;12.25;;
48751;SDS011;34544;48.836;9.174;2023-12-07T05:35:47;20.27;;;12.25;;
48751;SDS011;34544;48.836;9.174;2023-12-07T05:38:13;24.08;;;12.27;;
48751;SDS011;34544;48.836;9.174;2023-12-07T05:40:38;23.13;;;11.40;;
48751;SDS011;34544;48.836;9.174;2023-12-07T05:43:04;24.38;;;12.27;;
48751;SDS011;34544;48.836;9.174;2023-12-07T05:45:30;22.65;;;12.00;;
48751;SDS011;34544;48.836;9.174;2023-12-07T05:47:56;20.23;;;12.00;;
48751;SDS011;34544;48.836;9.174;2023-12-07T05:50:22;24.13;;;12.15;;
48751;SDS011;34544;48.836;9.174;2023-12-07T05:52:47;20.42;;;11.57;;
48751;SDS011;34544;48.836;9.174;2023-12-07T05:55:13;20.83;;;11.48;;
48751;SDS011;34544;48.836;9.174;2023-12-07T05:57:39;23.33;;;11.98;;
48751;SDS011;34544;48.836;9.174;2023-12-07T06:00:05;19.15;;;11.65;;
48751;SDS011;34544;48.836;9.174;2023-12-07T06:02:38;17.73;;;10.82;;
48751;SDS011;34544;48.836;9.174;2023-12-07T06:05:05;17.85;;;10.88;;
48751;SDS011;34544;48.836;9.174;2023-12-07T06:07:32;18.25;;;10.63;;
48751;SDS011;34544;48.836;9.174;2023-12-07T06:09:57;21.42;;;11.85;;
48751;SDS011;34544;48.836;9.174;2023-12-07T06:12:23;19.25;;;11.65;;
48751;SDS011;34544;48.836;9.174;2023-12-07T06:14:49;18.80;;;11.20;;
48751;SDS011;34544;48.836;9.174;2023-12-07T06:17:15;23.95;;;12.30;;
48751;SDS011;34544;48.836;9.174;2023-12-07T06:19:42;21.00;;;12.13;;
48751;SDS011;34544;48.836;9.174;2023-12-07T06:22:07;20.10;;;11.43;;
48751;SDS011;34544;48.836;9.174;2023-12-07T06:24:33;19.55;;;11.57;;
48751;SDS011;34544;48.836;9.174;2023-12-07T06:27:01;22.65;;;11.52;;
48751;SDS011;34544;48.836;9.174;2023-12-07T06:29:27;20.02;;;12.18;;
48751;SDS011;34544;48.836;9.174;2023-12-07T06:31:54;24.23;;;13.20;;
48751;SDS011;34544;48.836;9.174;2023-12-07T06:34:20;24.33;;;15.02;;
48751;SDS011;34544;48.836;9.174;2023-12-07T06:36:46;22.23;;;14.23;;
48751;SDS011;34544;48.836;9.174;2023-12-07T06:39:12;26.67;;;14.07;;
48751;SDS011;34544;48.836;9.174;2023-12-07T06:41:39;27.17;;;15.13;;
48751;SDS011;34544;48.836;9.174;2023-12-07T06:44:04;19.10;;;12.07;;
48751;SDS011;34544;48.836;9.174;2023-12-07T06:46:31;25.08;;;12.40;;
48751;SDS011;34544;48.836;9.174;2023-12-07T06:48:56;26.17;;;12.55;;
48751;SDS011;34544;48.836;9.174;2023-12-07T06:51:22;24.23;;;12.88;;
48751;SDS011;34544;48.836;9.174;2023-12-07T06:53:48;27.95;;;10.73;;
48751;SDS011;34544;48.836;9.174;2023-12-07T06:56:13;20.48;;;11.55;;
48751;SDS011;34544;48.836;9.174;2023-12-07T06:58:40;29.30;;;11.50;;
48751;SDS011;34544;48.836;9.174;2023-12-07T07:01:05;22.63;;;12.38;;
48751;SDS011;34544;48.836;9.174;2023-12-07T07:03:31;20.40;;;12.57;;
48751;SDS011;34544;48.836;9.174;2023-12-07T07:05:57;18.92;;;11.88;;
48751;SDS011;34544;48.836;9.174;2023-12-07T07:08:24;22.13;;;11.93;;
48751;SDS011;34544;48.836;9.174;2023-12-07T07:10:50;21.17;;;11.35;;
48751;SDS011;34544;48.836;9.174;2023-12-07T07:13:16;22.95;;;12.30;;
48751;SDS011;34544;48.836;9.174;2023-12-07T07:15:42;21.40;;;11.25;;
48751;SDS011;34544;48.836;9.174;2023-12-07T07:18:09;25.80;;;12.48;;
48751;SDS011;34544;48.836;9.174;2023-12-07T07:20:34;22.88;;;12.52;;
48751;SDS011;34544;48.836;9.174;2023-12-07T07:23:00;21.20;;;11.23;;
48751;SDS011;34544;48.836;9.174;2023-12-07T07:25:25;18.58;;;11.07;;
48751;SDS011;34544;48.836;9.174;2023-12-07T07:27:51;27.20;;;12.52;;
48751;SDS011;34544;48.836;9.174;2023-12-07T07:30:17;19.33;;;10.80;;
48751;SDS011;34544;48.836;9.174;2023-12-07T07:32:43;20.90;;;11.40;;
48751;SDS011;34544;48.836;9.174;2023-12-07T07:35:09;24.85;;;12.82;;
48751;SDS011;34544;48.836;9.174;2023-12-07T07:37:37;19.90;;;11.48;;
48751;SDS011;34544;48.836;9.174;2023-12-07T07:40:03;31.13;;;13.93;;
48751;SDS011;34544;48.836;9.174;2023-12-07T07:42:32;26.20;;;12.00;;
48751;SDS011;34544;48.836;9.174;2023-12-07T07:44:58;23.85;;;12.48;;
48751;SDS011;34544;48.836;9.174;2023-12-07T07:47:24;24.40;;;14.18;;
48751;SDS011;34544;48.836;9.174;2023-12-07T07:49:50;24.10;;;12.80;;
48751;SDS011;34544;48.836;9.174;2023-12-07T07:52:15;31.08;;;14.32;;
48751;SDS011;34544;48.836;9.174;2023-12-07T07:54:42;31.83;;;13.27;;
48751;SDS011;34544;48.836;9.174;2023-12-07T07:57:07;30.88;;;13.93;;
48751;SDS011;34544;48.836;9.174;2023-12-07T07:59:33;30.95;;;13.32;;
48751;SDS011;34544;48.836;9.174;2023-12-07T08:01:59;26.48;;;14.20;;
48751;SDS011;34544;48.836;9.174;2023-12-07T08:04:24;30.08;;;14.40;;
48751;SDS011;34544;48.836;9.174;2023-12-07T08:06:50;21.23;;;13.55;;
48751;SDS011;34544;48.836;9.174;2023-12-07T08:09:16;25.23;;;14.25;;
48751;SDS011;34544;48.836;9.174;2023-12-07T08:11:41;26.77;;;14.18;;
48751;SDS011;34544;48.836;9.174;2023-12-07T08:14:07;24.58;;;14.80;;
48751;SDS011;34544;48.836;9.174;2023-12-07T08:16:33;31.20;;;15.18;;
48751;SDS011;34544;48.836;9.174;2023-12-07T08:18:59;25.63;;;14.35;;
48751;SDS011;34544;48.836;9.174;2023-12-07T08:21:25;23.55;;;14.98;;
48751;SDS011;34544;48.836;9.174;2023-12-07T08:23:51;32.78;;;16.23;;
48751;SDS011;34544;48.836;9.174;2023-12-07T08:26:17;29.40;;;14.93;;
48751;SDS011;34544;48.836;9.174;2023-12-07T08:28:43;25.75;;;14.82;;
48751;SDS011;34544;48.836;9.174;2023-12-07T08:31:10;28.73;;;16.33;;
48751;SDS011;34544;48.836;9.174;2023-12-07T08:33:36;29.33;;;16.52;;
48751;SDS011;34544;48.836;9.174;2023-12-07T08:36:05;29.63;;;16.85;;
48751;SDS011;34544;48.836;9.174;2023-12-07T08:38:31;40.08;;;22.02;;
48751;SDS011;34544;48.836;9.174;2023-12-07T08:40:57;29.38;;;17.23;;
48751;SDS011;34544;48.836;9.174;2023-12-07T08:43:23;28.52;;;16.05;;
48751;SDS011;34544;48.836;9.174;2023-12-07T08:45:50;30.10;;;17.08;;
48751;SDS011;34544;48.836;9.174;2023-12-07T08:48:17;28.08;;;15.48;;
48751;SDS011;34544;48.836;9.174;2023-12-07T08:50:44;20.85;;;12.23;;
48751;SDS011;34544;48.836;9.174;2023-12-07T08:53:10;23.50;;;12.65;;
48751;SDS011;34544;48.836;9.174;2023-12-07T08:55:35;20.95;;;12.98;;
48751;SDS011;34544;48.836;9.174;2023-12-07T08:58:01;25.83;;;15.45;;
48751;SDS011;34544;48.836;9.174;2023-12-07T09:00:30;20.42;;;11.02;;
48751;SDS011;34544;48.836;9.174;2023-12-07T09:02:57;16.50;;;12.25;;
48751;SDS011;34544;48.836;9.174;2023-12-07T09:05:22;17.25;;;11.50;;
48751;SDS011;34544;48.836;9.174;2023-12-07T09:07:48;18.73;;;11.63;;
48751;SDS011;34544;48.836;9.174;2023-12-07T09:10:14;19.20;;;11.48;;
48751;SDS011;34544;48.836;9.174;2023-12-07T09:12:39;15.55;;;11.60;;
48751;SDS011;34544;48.836;9.174;2023-12-07T09:15:05;18.17;;;13.00;;
48751;SDS011;34544;48.836;9.174;2023-12-07T09:17:35;20.88;;;10.95;;
48751;SDS011;34544;48.836;9.174;2023-12-07T09:20:04;20.65;;;13.73;;
48751;SDS011;34544;48.836;9.174;2023-12-07T09:22:30;17.20;;;12.13;;
48751;SDS011;34544;48.836;9.174;2023-12-07T09:24:56;19.63;;;11.60;;
48751;SDS011;34544;48.836;9.174;2023-12-07T09:27:22;15.82;;;11.20;;
48751;SDS011;34544;48.836;9.174;2023-12-07T09:29:48;17.60;;;11.55;;
48751;SDS011;34544;48.836;9.174;2023-12-07T09:32:13;16.70;;;10.93;;
48751;SDS011;34544;48.836;9.174;2023-12-07T09:34:39;14.30;;;10.73;;
48751;SDS011;34544;48.836;9.174;2023-12-07T09:37:06;16.67;;;10.18;;
48751;SDS011;34544;48.836;9.174;2023-12-07T09:39:32;13.02;;;9.63;;
48751;SDS011;34544;48.836;9.174;2023-12-07T09:41:57;15.45;;;9.68;;
48751;SDS011;34544;48.836;9.174;2023-12-07T09:44:23;16.45;;;11.30;;
48751;SDS011;34544;48.836;9.174;2023-12-07T09:46:49;12.02;;;10.23;;
48751;SDS011;34544;48.836;9.174;2023-12-07T09:49:15;12.13;;;10.57;;
48751;SDS011;34544;48.836;9.174;2023-12-07T09:51:42;20.15;;;10.02;;
48751;SDS011;34544;48.836;9.174;2023-12-07T09:54:09;14.10;;;9.90;;
48751;SDS011;34544;48.836;9.174;2023-12-07T09:56:36;13.23;;;10.32;;
48751;SDS011;34544;48.836;9.174;2023-12-07T09:59:01;16.02;;;10.68;;
48751;SDS011;34544;48.836;9.174;2023-12-07T10:01:28;15.65;;;10.20;;
48751;SDS011;34544;48.836;9.174;2023-12-07T10:06:43;12.85;;;9.00;;
48751;SDS011;34544;48.836;9.174;2023-12-07T10:09:15;11.52;;;8.00;;
48751;SDS011;34544;48.836;9.174;2023-12-07T10:11:44;10.07;;;7.53;;
48751;SDS011;34544;48.836;9.174;2023-12-07T10:14:10;11.07;;;8.63;;
48751;SDS011;34544;48.836;9.174;2023-12-07T10:16:36;11.05;;;8.15;;
48751;SDS011;34544;48.836;9.174;2023-12-07T10:19:15;11.85;;;8.40;;
48751;SDS011;34544;48.836;9.174;2023-12-07T10:21:44;14.07;;;8.23;;
48751;SDS011;34544;48.836;9.174;2023-12-07T10:24:11;12.05;;;8.05;;
48751;SDS011;34544;48.836;9.174;2023-12-07T10:26:37;10.05;;;7.75;;
48751;SDS011;34544;48.836;9.174;2023-12-07T10:29:07;9.75;;;8.15;;
48751;SDS011;34544;48.836;9.174;2023-12-07T10:31:32;11.07;;;7.90;;
48751;SDS011;34544;48.836;9.174;2023-12-07T10:33:59;9.50;;;7.68;;
48751;SDS011;34544;48.836;9.174;2023-12-07T10:36:25;11.57;;;7.85;;
48751;SDS011;34544;48.836;9.174;2023-12-07T10:38:52;10.30;;;7.90;;
48751;SDS011;34544;48.836;9.174;2023-12-07T10:41:19;10.98;;;7.00;;
48751;SDS011;34544;48.836;9.174;2023-12-07T10:43:53;10.35;;;7.60;;
48751;SDS011;34544;48.836;9.174;2023-12-07T10:46:31;9.55;;;6.95;;
48751;SDS011;34544;48.836;9.174;2023-12-07T10:49:00;11.75;;;6.90;;
48751;SDS011;34544;48.836;9.174;2023-12-07T10:51:45;8.32;;;6.50;;
48751;SDS011;34544;48.836;9.174;2023-12-07T10:54:16;8.30;;;6.93;;
48751;SDS011;34544;48.836;9.174;2023-12-07T10:56:47;10.88;;;7.40;;
48751;SDS011;34544;48.836;9.174;2023-12-07T10:59:15;11.85;;;6.65;;
48751;SDS011;34544;48.836;9.174;2023-12-07T11:01:42;9.10;;;7.57;;
48751;SDS011;34544;48.836;9.174;2023-12-07T11:04:12;9.98;;;6.82;;
48751;SDS011;34544;48.836;9.174;2023-12-07T11:06:44;11.95;;;7.13;;
48751;SDS011;34544;48.836;9.174;2023-12-07T11:09:13;9.63;;;7.80;;
48751;SDS011;34544;48.836;9.174;2023-12-07T11:11:51;8.90;;;6.55;;
48751;SDS011;34544;48.836;9.174;2023-12-07T11:14:21;7.60;;;6.45;;
48751;SDS011;34544;48.836;9.174;2023-12-07T11:16:47;9.27;;;7.35;;
48751;SDS011;34544;48.836;9.174;2023-12-07T11:22:07;8.18;;;6.28;;
48751;SDS011;34544;48.836;9.174;2023-12-07T11:24:35;10.43;;;6.10;;
48751;SDS011;34544;48.836;9.174;2023-12-07T11:27:02;9.57;;;6.97;;
48751;SDS011;34544;48.836;9.174;2023-12-07T11:29:28;7.10;;;6.10;;
48751;SDS011;34544;48.836;9.174;2023-12-07T11:32:06;8.38;;;6.07;;
48751;SDS011;34544;48.836;9.174;2023-12-07T11:34:36;9.15;;;5.80;;
48751;SDS011;34544;48.836;9.174;2023-12-07T11:37:07;8.45;;;6.60;;
48751;SDS011;34544;48.836;9.174;2023-12-07T11:39:40;6.78;;;5.75;;
48751;SDS011;34544;48.836;9.174;2023-12-07T11:42:07;10.02;;;5.47;;
48751;SDS011;34544;48.836;9.174;2023-12-07T11:44:37;10.32;;;5.68;;
48751;SDS011;34544;48.836;9.174;2023-12-07T11:47:03;8.75;;;5.18;;
48751;SDS011;34544;48.836;9.174;2023-12-07T11:49:30;5.63;;;4.28;;
48751;SDS011;34544;48.836;9.174;2023-12-07T11:51:59;8.25;;;5.13;;
48751;SDS011;34544;48.836;9.174;2023-12-07T11:54:26;9.05;;;4.80;;
48751;SDS011;34544;48.836;9.174;2023-12-07T11:56:53;6.03;;;4.40;;
48751;SDS011;34544;48.836;9.174;2023-12-07T11:59:19;8.23;;;5.05;;
48751;SDS011;34544;48.836;9.174;2023-12-07T12:01:48;4.88;;;4.40;;
48751;SDS011;34544;48.836;9.174;2023-12-07T12:04:17;8.65;;;5.15;;
48751;SDS011;34544;48.836;9.174;2023-12-07T12:06:43;7.75;;;4.88;;
48751;SDS011;34544;48.836;9.174;2023-12-07T12:09:13;7.05;;;4.28;;
48751;SDS011;34544;48.836;9.174;2023-12-07T12:11:46;8.38;;;4.43;;
48751;SDS011;34544;48.836;9.174;2023-12-07T12:14:14;7.60;;;4.07;;
48751;SDS011;34544;48.836;9.174;2023-12-07T12:16:41;9.05;;;4.80;;
48751;SDS011;34544;48.836;9.174;2023-12-07T12:19:08;5.30;;;4.03;;
48751;SDS011;34544;48.836;9.174;2023-12-07T12:21:34;5.65;;;3.70;;
48751;SDS011;34544;48.836;9.174;2023-12-07T12:24:07;5.93;;;4.00;;
48751;SDS011;34544;48.836;9.174;2023-12-07T12:26:34;4.55;;;3.72;;
48751;SDS011;34544;48.836;9.174;2023-12-07T12:29:00;5.28;;;3.28;;
48751;SDS011;34544;48.836;9.174;2023-12-07T12:31:27;6.43;;;4.28;;
48751;SDS011;34544;48.836;9.174;2023-12-07T12:33:53;10.25;;;4.32;;
48751;SDS011;34544;48.836;9.174;2023-12-07T12:36:19;10.48;;;4.95;;
48751;SDS011;34544;48.836;9.174;2023-12-07T12:38:51;10.20;;;4.97;;
48751;SDS011;34544;48.836;9.174;2023-12-07T12:41:20;10.48;;;4.93;;
48751;SDS011;34544;48.836;9.174;2023-12-07T12:43:47;4.82;;;3.85;;
48751;SDS011;34544;48.836;9.174;2023-12-07T12:46:13;9.98;;;5.00;;
48751;SDS011;34544;48.836;9.174;2023-12-07T12:48:58;11.75;;;5.00;;
48751;SDS011;34544;48.836;9.174;2023-12-07T12:51:26;6.57;;;4.13;;
48751;SDS011;34544;48.836;9.174;2023-12-07T12:53:58;10.38;;;4.80;;
48751;SDS011;34544;48.836;9.174;2023-12-07T12:56:24;8.25;;;4.65;;
48751;SDS011;34544;48.836;9.174;2023-12-07T12:58:52;6.50;;;4.88;;
48751;SDS011;34544;48.836;9.174;2023-12-07T13:01:21;11.75;;;4.80;;
48751;SDS011;34544;48.836;9.174;2023-12-07T13:03:47;13.27;;;5.55;;
48751;SDS011;34544;48.836;9.174;2023-12-07T13:06:13;10.02;;;5.07;;
48751;SDS011;34544;48.836;9.174;2023-12-07T13:08:43;9.98;;;5.57;;
48751;SDS011;34544;48.836;9.174;2023-12-07T13:11:14;10.85;;;4.90;;
48751;SDS011;34544;48.836;9.174;2023-12-07T13:13:40;13.18;;;4.82;;
48751;SDS011;34544;48.836;9.174;2023-12-07T13:16:06;10.55;;;4.40;;
48751;SDS011;34544;48.836;9.174;2023-12-07T13:18:32;6.35;;;4.43;;
48751;SDS011;34544;48.836;9.174;2023-12-07T13:20:58;7.63;;;4.40;;
48751;SDS011;34544;48.836;9.174;2023-12-07T13:23:24;6.72;;;4.60;;
48751;SDS011;34544;48.836;9.174;2023-12-07T13:25:51;8.60;;;5.22;;
48751;SDS011;34544;48.836;9.174;2023-12-07T13:28:17;10.65;;;4.63;;
48751;SDS011;34544;48.836;9.174;2023-12-07T13:30:42;8.07;;;5.43;;
48751;SDS011;34544;48.836;9.174;2023-12-07T13:33:09;12.30;;;5.22;;
48751;SDS011;34544;48.836;9.174;2023-12-07T13:35:35;6.35;;;4.32;;
48751;SDS011;34544;48.836;9.174;2023-12-07T13:38:00;10.60;;;4.93;;
48751;SDS011;34544;48.836;9.174;2023-12-07T13:40:26;10.88;;;6.65;;
48751;SDS011;34544;48.836;9.174;2023-12-07T13:42:52;6.68;;;4.20;;
48751;SDS011;34544;48.836;9.174;2023-12-07T13:45:18;8.05;;;4.82;;
48751;SDS011;34544;48.836;9.174;2023-12-07T13:47:44;6.95;;;4.68;;
48751;SDS011;34544;48.836;9.174;2023-12-07T13:50:10;7.65;;;4.68;;
48751;SDS011;34544;48.836;9.174;2023-12-07T13:52:37;8.63;;;4.63;;
48751;SDS011;34544;48.836;9.174;2023-12-07T13:55:03;7.40;;;4.47;;
48751;SDS011;34544;48.836;9.174;2023-12-07T13:57:29;8.98;;;4.93;;
48751;SDS011;34544;48.836;9.174;2023-12-07T13:59:55;7.88;;;5.07;;
48751;SDS011;34544;48.836;9.174;2023-12-07T14:02:21;8.27;;;4.30;;
48751;SDS011;34544;48.836;9.174;2023-12-07T14:04:47;4.60;;;3.67;;
48751;SDS011;34544;48.836;9.174;2023-12-07T14:07:20;6.05;;;4.25;;
48751;SDS011;34544;48.836;9.174;2023-12-07T14:09:49;6.72;;;3.90;;
48751;SDS011;34544;48.836;9.174;2023-12-07T14:12:15;7.15;;;4.35;;
48751;SDS011;34544;48.836;9.174;2023-12-07T14:14:42;4.70;;;3.60;;
48751;SDS011;34544;48.836;9.174;2023-12-07T14:17:09;5.85;;;4.00;;
48751;SDS011;34544;48.836;9.174;2023-12-07T14:19:35;6.88;;;3.97;;
48751;SDS011;34544;48.836;9.174;2023-12-07T14:22:01;6.05;;;3.90;;
48751;SDS011;34544;48.836;9.174;2023-12-07T14:24:27;6.75;;;3.22;;
48751;SDS011;34544;48.836;9.174;2023-12-07T14:26:55;4.03;;;3.03;;
48751;SDS011;34544;48.836;9.174;2023-12-07T14:29:21;6.63;;;3.53;;
48751;SDS011;34544;48.836;9.174;2023-12-07T14:31:49;3.28;;;2.15;;
48751;SDS011;34544;48.836;9.174;2023-12-07T14:34:16;5.18;;;2.10;;
48751;SDS011;34544;48.836;9.174;2023-12-07T14:36:43;5.57;;;2.55;;
48751;SDS011;34544;48.836;9.174;2023-12-07T14:39:12;7.22;;;2.72;;